Stadskanaal, Netherlands
Current Conditions -  °F | °C
As of 11:25 AM on Thursday 23 Oct 2014 (Local Time) from EHGG Reporting Station
Overcast Overcast  
Wind Chill: 52°   Ceiling: 2800
Heat Index: 52°   Visibility: 4mi
Dew Point: 50°   Wind: 8mph
Humidity: 94%   Direction: 180°S
Pressure: 30.12"   Gusts: NA
Location:  53°N, 6.98°E
Report Text: EHGG 230925Z AUTO 18007KT 140V200 6000 OVC028 11/10 Q1020 BECMG9999
Loading
Personal Weather Stations






























Interactive Weather Map
Tropical Storm Tracking
New forecast layout! Learn more

10-Day Weather Forecast

Advertisements
Track Severe Weather on mobile